PWSweather.com
Personal Weather Stations
Station Observations
KOHCLEVE171
Cleveland, OH

Cleveland, OH

Lat: 41.48646164, Lon: -81.46408081

Elevation: 1059

Station Type:

High Low Average
Temperature 52.7°F11.5°C 31.5°F-0.3°C 38.0°F3.3°C
Dew Point 46.9°F8.3°C 24.1°F-4.4°C 31.3°F-0.4°C
Winds 10.7 mph 17.2 kmh 0.2 mph 0.3 kmh 5.0 mph SSE8.0 kmh SSE
Wind Gusts 19.9 mph32.0 kmh 1.1 mph1.8 kmh 8.0 mph12.9 kmh
Humidity 86% 65% 77%
Pressure 30.41 in1029.8 mb 29.77 in1008.1 mb -
Precipitation 0.21 in5.3 mm - -
Hour Temp Dew Point Humidity Winds Wind Gusts Pressure Precip Precip Rate Daily Precip Total
12:04 AM 32.5°F0.3°C 25.9°F-3.4°C 76% 1.6 mph ENE2.6 kmh ENE 2.0 mph3.2 kmh 30.41 in1029.8 mb 0.00 in0.0 mm 0.00 in0.0 mm 0.00 in0.0 mm
12:09 AM 32.4°F0.2°C 25.9°F-3.4°C 77% 1.1 mph E1.8 kmh E 1.6 mph2.6 kmh 30.41 in1029.8 mb 0.00 in0.0 mm 0.00 in0.0 mm 0.00 in0.0 mm
12:14 AM 32.4°F0.2°C 25.9°F-3.4°C 77% 0.7 mph ENE1.1 kmh ENE 1.1 mph1.8 kmh 30.41 in1029.8 mb 0.00 in0.0 mm 0.00 in0.0 mm 0.00 in0.0 mm
12:19 AM 32.4°F0.2°C 25.9°F-3.4°C 77% 1.8 mph E2.9 kmh E 2.5 mph4.0 kmh 30.40 in1029.5 mb 0.00 in0.0 mm 0.00 in0.0 mm 0.00 in0.0 mm
12:24 AM 32.2°F0.1°C 25.5°F-3.6°C 76% 1.3 mph E2.1 kmh E 2.0 mph3.2 kmh 30.40 in1029.5 mb 0.00 in0.0 mm 0.00 in0.0 mm 0.00 in0.0 mm
12:29 AM 32.0°F0.0°C 25.5°F-3.6°C 77% 1.6 mph ESE2.6 kmh ESE 2.2 mph3.5 kmh 30.40 in1029.5 mb 0.00 in0.0 mm 0.00 in0.0 mm 0.00 in0.0 mm
12:34 AM 32.0°F0.0°C 25.9°F-3.4°C 78% 0.4 mph SE0.6 kmh SE 1.3 mph2.1 kmh 30.40 in1029.5 mb 0.00 in0.0 mm 0.00 in0.0 mm 0.00 in0.0 mm
12:39 AM 32.0°F0.0°C 25.9°F-3.4°C 78% 0.2 mph SE0.3 kmh SE 0.9 mph1.4 kmh 30.40 in1029.5 mb 0.00 in0.0 mm 0.00 in0.0 mm 0.00 in0.0 mm
12:44 AM 31.8°F-0.1°C 25.7°F-3.5°C 78% Calm Calm -- 30.40 in1029.5 mb 0.00 in0.0 mm 0.00 in0.0 mm 0.00 in0.0 mm
12:49 AM 31.8°F-0.1°C 25.7°F-3.5°C 78% Calm Calm -- 30.41 in1029.8 mb 0.00 in0.0 mm 0.00 in0.0 mm 0.00 in0.0 mm
12:54 AM 31.8°F-0.1°C 26.4°F-3.1°C 80% Calm Calm -- 30.41 in1029.8 mb 0.00 in0.0 mm 0.00 in0.0 mm 0.00 in0.0 mm
01:04 AM 31.6°F-0.2°C 26.2°F-3.2°C 80% 0.7 mph NE1.1 kmh NE 1.1 mph1.8 kmh 30.40 in1029.5 mb 0.00 in0.0 mm 0.00 in0.0 mm 0.00 in0.0 mm
01:09 AM 31.8°F-0.1°C 26.4°F-3.1°C 80% 0.7 mph SE1.1 kmh SE 1.3 mph2.1 kmh 30.41 in1029.8 mb 0.00 in0.0 mm 0.00 in0.0 mm 0.00 in0.0 mm
01:14 AM 31.6°F-0.2°C 26.2°F-3.2°C 80% 1.6 mph SSE2.6 kmh SSE 2.0 mph3.2 kmh 30.41 in1029.8 mb 0.00 in0.0 mm 0.00 in0.0 mm 0.00 in0.0 mm
01:19 AM 31.6°F-0.2°C 26.2°F-3.2°C 80% 0.2 mph N0.3 kmh N 1.3 mph2.1 kmh 30.41 in1029.8 mb 0.00 in0.0 mm 0.00 in0.0 mm 0.00 in0.0 mm
01:24 AM 31.8°F-0.1°C 26.4°F-3.1°C 80% 2.0 mph ESE3.2 kmh ESE 2.7 mph4.3 kmh 30.41 in1029.8 mb 0.00 in0.0 mm 0.00 in0.0 mm 0.00 in0.0 mm
01:29 AM 31.8°F-0.1°C 25.7°F-3.5°C 78% 1.8 mph ESE2.9 kmh ESE 2.5 mph4.0 kmh 30.41 in1029.8 mb 0.00 in0.0 mm 0.00 in0.0 mm 0.00 in0.0 mm
01:34 AM 31.8°F-0.1°C 25.5°F-3.6°C 77% 1.8 mph E2.9 kmh E 2.5 mph4.0 kmh 30.41 in1029.8 mb 0.00 in0.0 mm 0.00 in0.0 mm 0.00 in0.0 mm
01:39 AM 31.8°F-0.1°C 25.5°F-3.6°C 77% 1.8 mph ESE2.9 kmh ESE 2.2 mph3.5 kmh 30.41 in1029.8 mb 0.00 in0.0 mm 0.00 in0.0 mm 0.00 in0.0 mm
01:44 AM 32.0°F0.0°C 25.5°F-3.6°C 77% 2.2 mph ESE3.5 kmh ESE 2.9 mph4.7 kmh 30.41 in1029.8 mb 0.00 in0.0 mm 0.00 in0.0 mm 0.00 in0.0 mm
01:49 AM 31.8°F-0.1°C 25.5°F-3.6°C 77% 3.1 mph ESE5.0 kmh ESE 4.0 mph6.4 kmh 30.41 in1029.8 mb 0.00 in0.0 mm 0.00 in0.0 mm 0.00 in0.0 mm
01:54 AM 31.8°F-0.1°C 25.5°F-3.6°C 77% 2.2 mph SE3.5 kmh SE 2.9 mph4.7 kmh 30.40 in1029.5 mb 0.00 in0.0 mm 0.00 in0.0 mm 0.00 in0.0 mm
01:59 AM 32.0°F0.0°C 25.5°F-3.6°C 77% 2.2 mph SE3.5 kmh SE 2.9 mph4.7 kmh 30.40 in1029.5 mb 0.00 in0.0 mm 0.00 in0.0 mm 0.00 in0.0 mm
02:04 AM 32.0°F0.0°C 25.3°F-3.7°C 76% 2.2 mph ESE3.5 kmh ESE 2.9 mph4.7 kmh 30.40 in1029.5 mb 0.00 in0.0 mm 0.00 in0.0 mm 0.00 in0.0 mm
02:09 AM 31.8°F-0.1°C 25.5°F-3.6°C 77% 2.7 mph SE4.3 kmh SE 3.6 mph5.8 kmh 30.40 in1029.5 mb 0.00 in0.0 mm 0.00 in0.0 mm 0.00 in0.0 mm
02:14 AM 31.8°F-0.1°C 25.2°F-3.8°C 76% 2.5 mph ESE4.0 kmh ESE 3.4 mph5.5 kmh 30.39 in1029.1 mb 0.00 in0.0 mm 0.00 in0.0 mm 0.00 in0.0 mm
02:19 AM 31.8°F-0.1°C 24.8°F-4.0°C 75% 2.7 mph ESE4.3 kmh ESE 5.4 mph8.7 kmh 30.39 in1029.1 mb 0.00 in0.0 mm 0.00 in0.0 mm 0.00 in0.0 mm
02:24 AM 31.8°F-0.1°C 25.2°F-3.8°C 76% 2.7 mph SE4.3 kmh SE 4.3 mph6.9 kmh 30.39 in1029.1 mb 0.00 in0.0 mm 0.00 in0.0 mm 0.00 in0.0 mm
02:29 AM 31.8°F-0.1°C 25.2°F-3.8°C 76% 2.2 mph SE3.5 kmh SE 4.5 mph7.2 kmh 30.39 in1029.1 mb 0.00 in0.0 mm 0.00 in0.0 mm 0.00 in0.0 mm
02:34 AM 31.8°F-0.1°C 25.2°F-3.8°C 76% 2.9 mph E4.7 kmh E 5.4 mph8.7 kmh 30.39 in1029.1 mb 0.00 in0.0 mm 0.00 in0.0 mm 0.00 in0.0 mm
02:39 AM 31.8°F-0.1°C 24.8°F-4.0°C 75% 2.0 mph ESE3.2 kmh ESE 2.7 mph4.3 kmh 30.39 in1029.1 mb 0.00 in0.0 mm 0.00 in0.0 mm 0.00 in0.0 mm
02:44 AM 31.8°F-0.1°C 25.2°F-3.8°C 76% 2.7 mph ESE4.3 kmh ESE 3.6 mph5.8 kmh 30.39 in1029.1 mb 0.00 in0.0 mm 0.00 in0.0 mm 0.00 in0.0 mm
02:49 AM 31.8°F-0.1°C 24.8°F-4.0°C 75% 2.5 mph SE4.0 kmh SE 3.4 mph5.5 kmh 30.39 in1029.1 mb 0.00 in0.0 mm 0.00 in0.0 mm 0.00 in0.0 mm
02:54 AM 31.8°F-0.1°C 25.2°F-3.8°C 76% 1.8 mph SSE2.9 kmh SSE 4.0 mph6.4 kmh 30.39 in1029.1 mb 0.00 in0.0 mm 0.00 in0.0 mm 0.00 in0.0 mm
02:59 AM 31.8°F-0.1°C 25.2°F-3.8°C 76% 3.4 mph SSE5.5 kmh SSE 6.0 mph9.7 kmh 30.39 in1029.1 mb 0.00 in0.0 mm 0.00 in0.0 mm 0.00 in0.0 mm
03:04 AM 31.8°F-0.1°C 25.2°F-3.8°C 76% 2.0 mph SSE3.2 kmh SSE 2.7 mph4.3 kmh 30.39 in1029.1 mb 0.00 in0.0 mm 0.00 in0.0 mm 0.00 in0.0 mm
03:09 AM 31.6°F-0.2°C 25.0°F-3.9°C 76% 1.8 mph SE2.9 kmh SE 2.7 mph4.3 kmh 30.39 in1029.1 mb 0.00 in0.0 mm 0.00 in0.0 mm 0.00 in0.0 mm
03:14 AM 31.6°F-0.2°C 25.0°F-3.9°C 76% 1.6 mph SE2.6 kmh SE 2.7 mph4.3 kmh 30.39 in1029.1 mb 0.00 in0.0 mm 0.00 in0.0 mm 0.00 in0.0 mm
03:19 AM 31.6°F-0.2°C 24.6°F-4.1°C 75% 2.7 mph ESE4.3 kmh ESE 3.4 mph5.5 kmh 30.39 in1029.1 mb 0.00 in0.0 mm 0.00 in0.0 mm 0.00 in0.0 mm
03:24 AM 31.8°F-0.1°C 25.2°F-3.8°C 76% 2.7 mph SE4.3 kmh SE 4.3 mph6.9 kmh 30.40 in1029.5 mb 0.00 in0.0 mm 0.00 in0.0 mm 0.00 in0.0 mm
03:29 AM 31.8°F-0.1°C 25.2°F-3.8°C 76% 2.0 mph ESE3.2 kmh ESE 4.5 mph7.2 kmh 30.39 in1029.1 mb 0.00 in0.0 mm 0.00 in0.0 mm 0.00 in0.0 mm
03:34 AM 31.8°F-0.1°C 24.8°F-4.0°C 75% 2.5 mph ESE4.0 kmh ESE 3.8 mph6.1 kmh 30.39 in1029.1 mb 0.00 in0.0 mm 0.00 in0.0 mm 0.00 in0.0 mm
03:39 AM 31.8°F-0.1°C 24.8°F-4.0°C 75% 2.9 mph SE4.7 kmh SE 3.6 mph5.8 kmh 30.38 in1028.8 mb 0.00 in0.0 mm 0.00 in0.0 mm 0.00 in0.0 mm
03:44 AM 31.8°F-0.1°C 24.8°F-4.0°C 75% 2.9 mph ESE4.7 kmh ESE 3.8 mph6.1 kmh 30.38 in1028.8 mb 0.00 in0.0 mm 0.00 in0.0 mm 0.00 in0.0 mm
03:49 AM 31.8°F-0.1°C 24.8°F-4.0°C 75% 2.7 mph ESE4.3 kmh ESE 4.0 mph6.4 kmh 30.38 in1028.8 mb 0.00 in0.0 mm 0.00 in0.0 mm 0.00 in0.0 mm
03:54 AM 31.8°F-0.1°C 25.2°F-3.8°C 76% 2.2 mph SE3.5 kmh SE 2.9 mph4.7 kmh 30.38 in1028.8 mb 0.00 in0.0 mm 0.00 in0.0 mm 0.00 in0.0 mm
03:59 AM 31.8°F-0.1°C 24.8°F-4.0°C 75% 2.2 mph ESE3.5 kmh ESE 4.0 mph6.4 kmh 30.38 in1028.8 mb 0.00 in0.0 mm 0.00 in0.0 mm 0.00 in0.0 mm
04:04 AM 32.0°F0.0°C 25.0°F-3.9°C 75% 2.5 mph SE4.0 kmh SE 3.1 mph5.0 kmh 30.39 in1029.1 mb 0.00 in0.0 mm 0.00 in0.0 mm 0.00 in0.0 mm
04:09 AM 31.8°F-0.1°C 24.8°F-4.0°C 75% 2.7 mph SE4.3 kmh SE 3.6 mph5.8 kmh 30.38 in1028.8 mb 0.00 in0.0 mm 0.00 in0.0 mm 0.00 in0.0 mm
04:14 AM 32.0°F0.0°C 25.0°F-3.9°C 75% 2.7 mph SE4.3 kmh SE 3.1 mph5.0 kmh 30.37 in1028.4 mb 0.00 in0.0 mm 0.00 in0.0 mm 0.00 in0.0 mm
04:19 AM 32.0°F0.0°C 25.0°F-3.9°C 75% 2.9 mph SE4.7 kmh SE 4.7 mph7.6 kmh 30.37 in1028.4 mb 0.00 in0.0 mm 0.00 in0.0 mm 0.00 in0.0 mm
04:24 AM 31.8°F-0.1°C 24.1°F-4.4°C 73% 2.9 mph ESE4.7 kmh ESE 5.4 mph8.7 kmh 30.37 in1028.4 mb 0.00 in0.0 mm 0.00 in0.0 mm 0.00 in0.0 mm
04:29 AM 31.8°F-0.1°C 24.1°F-4.4°C 73% 3.1 mph SE5.0 kmh SE 3.6 mph5.8 kmh 30.36 in1028.1 mb 0.00 in0.0 mm 0.00 in0.0 mm 0.00 in0.0 mm
04:34 AM 32.0°F0.0°C 24.3°F-4.3°C 73% 3.8 mph SE6.1 kmh SE 4.7 mph7.6 kmh 30.35 in1027.8 mb 0.00 in0.0 mm 0.00 in0.0 mm 0.00 in0.0 mm
04:39 AM 32.0°F0.0°C 25.0°F-3.9°C 75% 2.7 mph ESE4.3 kmh ESE 3.8 mph6.1 kmh 30.35 in1027.8 mb 0.00 in0.0 mm 0.00 in0.0 mm 0.00 in0.0 mm
04:44 AM 32.2°F0.1°C 25.2°F-3.8°C 75% 4.3 mph SE6.9 kmh SE 6.0 mph9.7 kmh 30.35 in1027.8 mb 0.00 in0.0 mm 0.00 in0.0 mm 0.00 in0.0 mm
04:49 AM 32.0°F0.0°C 25.0°F-3.9°C 75% 2.7 mph SE4.3 kmh SE 6.7 mph10.8 kmh 30.36 in1028.1 mb 0.00 in0.0 mm 0.00 in0.0 mm 0.00 in0.0 mm
04:54 AM 32.2°F0.1°C 25.2°F-3.8°C 75% 2.7 mph SE4.3 kmh SE 4.0 mph6.4 kmh 30.36 in1028.1 mb 0.00 in0.0 mm 0.00 in0.0 mm 0.00 in0.0 mm
04:59 AM 32.0°F0.0°C 25.0°F-3.9°C 75% 3.1 mph SE5.0 kmh SE 4.0 mph6.4 kmh 30.36 in1028.1 mb 0.00 in0.0 mm 0.00 in0.0 mm 0.00 in0.0 mm
05:04 AM 32.2°F0.1°C 25.2°F-3.8°C 75% 4.0 mph SE6.4 kmh SE 5.6 mph9.0 kmh 30.35 in1027.8 mb 0.00 in0.0 mm 0.00 in0.0 mm 0.00 in0.0 mm
05:09 AM 32.2°F0.1°C 25.2°F-3.8°C 75% 2.5 mph SE4.0 kmh SE 3.4 mph5.5 kmh 30.35 in1027.8 mb 0.00 in0.0 mm 0.00 in0.0 mm 0.00 in0.0 mm
05:14 AM 32.2°F0.1°C 25.2°F-3.8°C 75% 3.8 mph SSE6.1 kmh SSE 4.9 mph7.9 kmh 30.35 in1027.8 mb 0.00 in0.0 mm 0.00 in0.0 mm 0.00 in0.0 mm
05:19 AM 32.2°F0.1°C 25.2°F-3.8°C 75% 4.3 mph SSE6.9 kmh SSE 6.7 mph10.8 kmh 30.34 in1027.4 mb 0.00 in0.0 mm 0.00 in0.0 mm 0.00 in0.0 mm
05:24 AM 32.2°F0.1°C 25.2°F-3.8°C 75% 3.1 mph SE5.0 kmh SE 6.3 mph10.1 kmh 30.34 in1027.4 mb 0.00 in0.0 mm 0.00 in0.0 mm 0.00 in0.0 mm
05:29 AM 32.0°F0.0°C 24.3°F-4.3°C 73% 2.2 mph S3.5 kmh S 4.7 mph7.6 kmh 30.34 in1027.4 mb 0.00 in0.0 mm 0.00 in0.0 mm 0.00 in0.0 mm
05:34 AM 32.0°F0.0°C 24.3°F-4.3°C 73% 2.2 mph SSE3.5 kmh SSE 3.4 mph5.5 kmh 30.34 in1027.4 mb 0.00 in0.0 mm 0.00 in0.0 mm 0.00 in0.0 mm
05:39 AM 32.0°F0.0°C 24.3°F-4.3°C 73% 3.8 mph SSE6.1 kmh SSE 6.9 mph11.1 kmh 30.34 in1027.4 mb 0.00 in0.0 mm 0.00 in0.0 mm 0.00 in0.0 mm
05:44 AM 32.2°F0.1°C 25.2°F-3.8°C 75% 3.1 mph SE5.0 kmh SE 4.9 mph7.9 kmh 30.35 in1027.8 mb 0.01 in0.3 mm 0.12 in3.0 mm 0.01 in0.3 mm
05:49 AM 32.2°F0.1°C 25.2°F-3.8°C 75% 3.6 mph SE5.8 kmh SE 5.1 mph8.2 kmh 30.34 in1027.4 mb 0.01 in0.3 mm 0.00 in0.0 mm 0.02 in0.5 mm
05:54 AM 32.2°F0.1°C 25.5°F-3.6°C 76% 2.5 mph S4.0 kmh S 3.4 mph5.5 kmh 30.34 in1027.4 mb 0.02 in0.5 mm 0.12 in3.0 mm 0.03 in0.8 mm
05:59 AM 32.2°F0.1°C 25.5°F-3.6°C 76% 3.1 mph SE5.0 kmh SE 4.5 mph7.2 kmh 30.34 in1027.4 mb 0.02 in0.5 mm 0.00 in0.0 mm 0.04 in1.0 mm
06:04 AM 32.2°F0.1°C 26.1°F-3.3°C 78% 4.9 mph SSE7.9 kmh SSE 6.9 mph11.1 kmh 30.33 in1027.1 mb 0.04 in1.0 mm 0.02 in0.5 mm 0.04 in1.0 mm
06:09 AM 32.2°F0.1°C 26.4°F-3.1°C 79% 3.1 mph SSE5.0 kmh SSE 4.3 mph6.9 kmh 30.34 in1027.4 mb 0.05 in1.3 mm 0.12 in3.0 mm 0.05 in1.3 mm
06:14 AM 32.0°F0.0°C 26.2°F-3.2°C 79% 3.6 mph SSE5.8 kmh SSE 5.4 mph8.7 kmh 30.34 in1027.4 mb 0.05 in1.3 mm 0.00 in0.0 mm 0.05 in1.3 mm
06:19 AM 31.8°F-0.1°C 26.1°F-3.3°C 79% 3.6 mph SE5.8 kmh SE 6.7 mph10.8 kmh 30.33 in1027.1 mb 0.05 in1.3 mm 0.00 in0.0 mm 0.05 in1.3 mm
06:24 AM 31.8°F-0.1°C 26.4°F-3.1°C 80% 3.6 mph SE5.8 kmh SE 6.3 mph10.1 kmh 30.33 in1027.1 mb 0.06 in1.5 mm 0.12 in3.0 mm 0.06 in1.5 mm
06:29 AM 31.8°F-0.1°C 26.4°F-3.1°C 80% 3.6 mph SSE5.8 kmh SSE 4.9 mph7.9 kmh 30.34 in1027.4 mb 0.06 in1.5 mm 0.00 in0.0 mm 0.06 in1.5 mm
06:34 AM 31.8°F-0.1°C 26.6°F-3.0°C 81% 2.7 mph SSE4.3 kmh SSE 4.7 mph7.6 kmh 30.34 in1027.4 mb 0.07 in1.8 mm 0.12 in3.0 mm 0.07 in1.8 mm
06:39 AM 31.6°F-0.2°C 26.4°F-3.1°C 81% 4.5 mph S7.2 kmh S 7.2 mph11.6 kmh 30.35 in1027.8 mb 0.06 in1.5 mm 0.00 in0.0 mm 0.07 in1.8 mm
06:44 AM 31.6°F-0.2°C 26.8°F-2.9°C 82% 5.1 mph S8.2 kmh S 6.9 mph11.1 kmh 30.35 in1027.8 mb 0.06 in1.5 mm 0.00 in0.0 mm 0.07 in1.8 mm
06:49 AM 31.5°F-0.3°C 26.6°F-3.0°C 82% 2.9 mph SSE4.7 kmh SSE 4.3 mph6.9 kmh 30.35 in1027.8 mb 0.05 in1.3 mm 0.00 in0.0 mm 0.07 in1.8 mm
06:54 AM 31.6°F-0.2°C 26.8°F-2.9°C 82% 3.4 mph S5.5 kmh S 7.2 mph11.6 kmh 30.36 in1028.1 mb 0.04 in1.0 mm 0.00 in0.0 mm 0.07 in1.8 mm
06:59 AM 31.5°F-0.3°C 26.6°F-3.0°C 82% 4.7 mph SSE7.6 kmh SSE 6.0 mph9.7 kmh 30.36 in1028.1 mb 0.01 in0.3 mm 0.00 in0.0 mm 0.08 in2.0 mm
07:04 AM 31.5°F-0.3°C 27.1°F-2.7°C 84% 4.3 mph S6.9 kmh S 6.0 mph9.7 kmh 30.35 in1027.8 mb 0.04 in1.0 mm 0.03 in0.8 mm 0.08 in2.0 mm
07:09 AM 31.5°F-0.3°C 27.1°F-2.7°C 84% 4.0 mph SE6.4 kmh SE 8.1 mph13.0 kmh 30.34 in1027.4 mb 0.04 in1.0 mm 0.00 in0.0 mm 0.08 in2.0 mm
07:14 AM 31.5°F-0.3°C 27.5°F-2.5°C 85% 3.6 mph SE5.8 kmh SE 5.6 mph9.0 kmh 30.34 in1027.4 mb 0.01 in0.3 mm 0.00 in0.0 mm 0.09 in2.3 mm
07:19 AM 31.5°F-0.3°C 27.1°F-2.7°C 84% 3.6 mph SE5.8 kmh SE 6.3 mph10.1 kmh 30.34 in1027.4 mb 0.01 in0.3 mm 0.00 in0.0 mm 0.10 in2.5 mm
07:24 AM 31.5°F-0.3°C 27.1°F-2.7°C 84% 4.3 mph SSE6.9 kmh SSE 6.0 mph9.7 kmh 30.35 in1027.8 mb 0.02 in0.5 mm 0.12 in3.0 mm 0.11 in2.8 mm
07:29 AM 31.5°F-0.3°C 27.1°F-2.7°C 84% 4.7 mph SE7.6 kmh SE 8.9 mph14.3 kmh 30.34 in1027.4 mb 0.03 in0.8 mm 0.12 in3.0 mm 0.12 in3.0 mm
07:34 AM 31.6°F-0.2°C 27.3°F-2.6°C 84% 4.3 mph ESE6.9 kmh ESE 6.5 mph10.5 kmh 30.34 in1027.4 mb 0.03 in0.8 mm 0.00 in0.0 mm 0.12 in3.0 mm
07:39 AM 31.6°F-0.2°C 26.8°F-2.9°C 82% 4.3 mph SE6.9 kmh SE 7.2 mph11.6 kmh 30.33 in1027.1 mb 0.03 in0.8 mm 0.00 in0.0 mm 0.12 in3.0 mm
07:44 AM 31.6°F-0.2°C 26.8°F-2.9°C 82% 4.3 mph SE6.9 kmh SE 6.0 mph9.7 kmh 30.32 in1026.8 mb 0.04 in1.0 mm 0.12 in3.0 mm 0.13 in3.3 mm
07:49 AM 31.6°F-0.2°C 26.8°F-2.9°C 82% 3.8 mph SE6.1 kmh SE 5.8 mph9.3 kmh 30.32 in1026.8 mb 0.05 in1.3 mm 0.12 in3.0 mm 0.14 in3.6 mm
07:54 AM 31.6°F-0.2°C 27.3°F-2.6°C 84% 4.0 mph SE6.4 kmh SE 5.6 mph9.0 kmh 30.31 in1026.4 mb 0.05 in1.3 mm 0.00 in0.0 mm 0.15 in3.8 mm
07:59 AM 31.8°F-0.1°C 27.9°F-2.3°C 85% 4.3 mph S6.9 kmh S 7.4 mph11.9 kmh 30.32 in1026.8 mb 0.05 in1.3 mm 0.00 in0.0 mm 0.15 in3.8 mm
08:04 AM 31.8°F-0.1°C 27.9°F-2.3°C 85% 3.1 mph SE5.0 kmh SE 5.8 mph9.3 kmh 30.32 in1026.8 mb 0.08 in2.0 mm 0.03 in0.8 mm 0.15 in3.8 mm
08:09 AM 32.0°F0.0°C 28.0°F-2.2°C 85% 4.0 mph ESE6.4 kmh ESE 6.0 mph9.7 kmh 30.31 in1026.4 mb 0.01 in0.3 mm 0.00 in0.0 mm 0.16 in4.1 mm
08:14 AM 32.0°F0.0°C 28.2°F-2.1°C 86% 3.1 mph SE5.0 kmh SE 5.1 mph8.2 kmh 30.31 in1026.4 mb 0.01 in0.3 mm 0.00 in0.0 mm 0.16 in4.1 mm
08:18 AM 32.0°F0.0°C 28.0°F-2.2°C 85% 3.6 mph SE5.8 kmh SE 5.4 mph8.7 kmh 30.29 in1025.7 mb 0.01 in0.3 mm 0.00 in0.0 mm 0.16 in4.1 mm
08:23 AM 31.8°F-0.1°C 27.9°F-2.3°C 85% 4.0 mph ESE6.4 kmh ESE 6.0 mph9.7 kmh 30.27 in1025.1 mb 0.02 in0.5 mm 0.12 in3.0 mm 0.17 in4.3 mm
08:28 AM 32.0°F0.0°C 28.2°F-2.1°C 86% 3.6 mph ESE5.8 kmh ESE 4.7 mph7.6 kmh 30.27 in1025.1 mb 0.02 in0.5 mm 0.00 in0.0 mm 0.17 in4.3 mm
08:33 AM 32.0°F0.0°C 28.2°F-2.1°C 86% 4.5 mph SE7.2 kmh SE 6.9 mph11.1 kmh 30.27 in1025.1 mb 0.02 in0.5 mm 0.00 in0.0 mm 0.17 in4.3 mm
08:38 AM 32.0°F0.0°C 28.0°F-2.2°C 85% 4.5 mph SE7.2 kmh SE 5.8 mph9.3 kmh 30.24 in1024.0 mb 0.02 in0.5 mm 0.00 in0.0 mm 0.17 in4.3 mm
08:43 AM 32.0°F0.0°C 28.2°F-2.1°C 86% 4.3 mph SE6.9 kmh SE 6.0 mph9.7 kmh 30.27 in1025.1 mb 0.02 in0.5 mm 0.00 in0.0 mm 0.17 in4.3 mm
08:48 AM 32.0°F0.0°C 28.2°F-2.1°C 86% 3.4 mph S5.5 kmh S 5.4 mph8.7 kmh 30.27 in1025.1 mb 0.02 in0.5 mm 0.00 in0.0 mm 0.17 in4.3 mm
08:53 AM 32.0°F0.0°C 28.2°F-2.1°C 86% 3.4 mph SSE5.5 kmh SSE 5.8 mph9.3 kmh 30.28 in1025.4 mb 0.02 in0.5 mm 0.00 in0.0 mm 0.17 in4.3 mm
08:58 AM 32.0°F0.0°C 28.2°F-2.1°C 86% 4.0 mph SE6.4 kmh SE 6.5 mph10.5 kmh 30.28 in1025.4 mb 0.02 in0.5 mm 0.00 in0.0 mm 0.17 in4.3 mm
09:03 AM 32.0°F0.0°C 28.2°F-2.1°C 86% 3.1 mph S5.0 kmh S 5.6 mph9.0 kmh 30.28 in1025.4 mb 0.02 in0.5 mm 0.00 in0.0 mm 0.17 in4.3 mm
09:08 AM 32.0°F0.0°C 28.2°F-2.1°C 86% 4.3 mph SE6.9 kmh SE 6.9 mph11.1 kmh 30.28 in1025.4 mb 0.02 in0.5 mm 0.00 in0.0 mm 0.17 in4.3 mm
09:13 AM 32.0°F0.0°C 28.2°F-2.1°C 86% 4.5 mph S7.2 kmh S 6.5 mph10.5 kmh 30.28 in1025.4 mb 0.01 in0.3 mm 0.00 in0.0 mm 0.17 in4.3 mm
09:18 AM 32.0°F0.0°C 28.2°F-2.1°C 86% 6.3 mph S10.1 kmh S 9.6 mph15.4 kmh 30.29 in1025.7 mb 0.01 in0.3 mm 0.00 in0.0 mm 0.17 in4.3 mm
09:23 AM 31.8°F-0.1°C 28.0°F-2.2°C 86% 4.7 mph SSE7.6 kmh SSE 6.5 mph10.5 kmh 30.28 in1025.4 mb 0.00 in0.0 mm 0.00 in0.0 mm 0.17 in4.3 mm
09:28 AM 31.8°F-0.1°C 28.0°F-2.2°C 86% 4.3 mph SE6.9 kmh SE 8.3 mph13.4 kmh 30.28 in1025.4 mb 0.00 in0.0 mm 0.00 in0.0 mm 0.17 in4.3 mm
09:33 AM 31.8°F-0.1°C 27.9°F-2.3°C 85% 3.8 mph SE6.1 kmh SE 5.6 mph9.0 kmh 30.28 in1025.4 mb 0.00 in0.0 mm 0.00 in0.0 mm 0.17 in4.3 mm
09:39 AM 31.8°F-0.1°C 28.0°F-2.2°C 86% 4.7 mph SSE7.6 kmh SSE 6.7 mph10.8 kmh 30.28 in1025.4 mb 0.00 in0.0 mm 0.00 in0.0 mm 0.17 in4.3 mm
09:44 AM 31.8°F-0.1°C 28.0°F-2.2°C 86% 3.8 mph SSE6.1 kmh SSE 4.9 mph7.9 kmh 30.27 in1025.1 mb 0.00 in0.0 mm 0.00 in0.0 mm 0.17 in4.3 mm
09:49 AM 31.6°F-0.2°C 27.7°F-2.4°C 85% 3.8 mph SSE6.1 kmh SSE 6.3 mph10.1 kmh 30.27 in1025.1 mb 0.00 in0.0 mm 0.00 in0.0 mm 0.17 in4.3 mm
09:54 AM 31.6°F-0.2°C 27.7°F-2.4°C 85% 3.4 mph SSE5.5 kmh SSE 4.7 mph7.6 kmh 30.27 in1025.1 mb 0.00 in0.0 mm 0.00 in0.0 mm 0.17 in4.3 mm
09:59 AM 31.6°F-0.2°C 27.9°F-2.3°C 86% 5.8 mph SE9.3 kmh SE 8.9 mph14.3 kmh 30.27 in1025.1 mb 0.00 in0.0 mm 0.00 in0.0 mm 0.17 in4.3 mm
10:04 AM 31.5°F-0.3°C 27.5°F-2.5°C 85% 4.7 mph SSE7.6 kmh SSE 7.2 mph11.6 kmh 30.27 in1025.1 mb 0.00 in0.0 mm 0.00 in0.0 mm 0.17 in4.3 mm
10:09 AM 31.6°F-0.2°C 27.9°F-2.3°C 86% 4.9 mph SSE7.9 kmh SSE 7.4 mph11.9 kmh 30.26 in1024.7 mb 0.00 in0.0 mm 0.00 in0.0 mm 0.17 in4.3 mm
10:14 AM 31.6°F-0.2°C 27.7°F-2.4°C 85% 4.7 mph SSE7.6 kmh SSE 7.6 mph12.2 kmh 30.26 in1024.7 mb 0.00 in0.0 mm 0.00 in0.0 mm 0.17 in4.3 mm
10:19 AM 31.6°F-0.2°C 27.7°F-2.4°C 85% 5.4 mph SE8.7 kmh SE 7.6 mph12.2 kmh 30.24 in1024.0 mb 0.00 in0.0 mm 0.00 in0.0 mm 0.17 in4.3 mm
10:24 AM 31.6°F-0.2°C 27.7°F-2.4°C 85% 3.6 mph SSE5.8 kmh SSE 6.0 mph9.7 kmh 30.24 in1024.0 mb 0.00 in0.0 mm 0.00 in0.0 mm 0.17 in4.3 mm
10:29 AM 31.6°F-0.2°C 27.7°F-2.4°C 85% 4.5 mph SE7.2 kmh SE 7.6 mph12.2 kmh 30.24 in1024.0 mb 0.00 in0.0 mm 0.00 in0.0 mm 0.17 in4.3 mm
10:34 AM 31.6°F-0.2°C 27.7°F-2.4°C 85% 4.9 mph SE7.9 kmh SE 8.3 mph13.4 kmh 30.24 in1024.0 mb 0.00 in0.0 mm 0.00 in0.0 mm 0.17 in4.3 mm
10:38 AM 31.6°F-0.2°C 27.3°F-2.6°C 84% 6.7 mph S10.8 kmh S 8.5 mph13.7 kmh 30.23 in1023.7 mb 0.00 in0.0 mm 0.00 in0.0 mm 0.17 in4.3 mm
10:43 AM 31.6°F-0.2°C 27.3°F-2.6°C 84% 4.9 mph SSE7.9 kmh SSE 7.6 mph12.2 kmh 30.23 in1023.7 mb 0.00 in0.0 mm 0.00 in0.0 mm 0.17 in4.3 mm
10:48 AM 31.6°F-0.2°C 27.3°F-2.6°C 84% 7.4 mph SSE11.9 kmh SSE 12.5 mph20.1 kmh 30.23 in1023.7 mb 0.00 in0.0 mm 0.00 in0.0 mm 0.17 in4.3 mm
10:53 AM 31.6°F-0.2°C 26.8°F-2.9°C 82% 4.9 mph SSE7.9 kmh SSE 8.9 mph14.3 kmh 30.22 in1023.4 mb 0.00 in0.0 mm 0.00 in0.0 mm 0.17 in4.3 mm
10:58 AM 31.8°F-0.1°C 27.5°F-2.5°C 84% 4.3 mph SSE6.9 kmh SSE 7.4 mph11.9 kmh 30.22 in1023.4 mb 0.00 in0.0 mm 0.00 in0.0 mm 0.17 in4.3 mm
11:03 AM 31.8°F-0.1°C 27.5°F-2.5°C 84% 3.6 mph SE5.8 kmh SE 6.0 mph9.7 kmh 30.22 in1023.4 mb 0.00 in0.0 mm 0.00 in0.0 mm 0.17 in4.3 mm
11:08 AM 32.0°F0.0°C 27.1°F-2.7°C 82% 6.3 mph SSE10.1 kmh SSE 8.7 mph14.0 kmh 30.22 in1023.4 mb 0.00 in0.0 mm 0.00 in0.0 mm 0.17 in4.3 mm
11:13 AM 32.0°F0.0°C 26.8°F-2.9°C 81% 4.7 mph SE7.6 kmh SE 6.7 mph10.8 kmh 30.22 in1023.4 mb 0.00 in0.0 mm 0.00 in0.0 mm 0.17 in4.3 mm
11:18 AM 32.0°F0.0°C 26.8°F-2.9°C 81% 5.8 mph SE9.3 kmh SE 7.8 mph12.6 kmh 30.20 in1022.7 mb 0.00 in0.0 mm 0.00 in0.0 mm 0.17 in4.3 mm
11:23 AM 32.2°F0.1°C 27.0°F-2.8°C 81% 5.1 mph SE8.2 kmh SE 8.7 mph14.0 kmh 30.20 in1022.7 mb 0.00 in0.0 mm 0.00 in0.0 mm 0.17 in4.3 mm
11:28 AM 32.2°F0.1°C 27.0°F-2.8°C 81% 5.6 mph SSE9.0 kmh SSE 7.2 mph11.6 kmh 30.19 in1022.4 mb 0.00 in0.0 mm 0.00 in0.0 mm 0.17 in4.3 mm
11:33 AM 32.4°F0.2°C 27.0°F-2.8°C 80% 4.5 mph SSE7.2 kmh SSE 8.3 mph13.4 kmh 30.20 in1022.7 mb 0.00 in0.0 mm 0.00 in0.0 mm 0.17 in4.3 mm
11:38 AM 32.4°F0.2°C 27.0°F-2.8°C 80% 6.3 mph SSE10.1 kmh SSE 8.7 mph14.0 kmh 30.19 in1022.4 mb 0.00 in0.0 mm 0.00 in0.0 mm 0.17 in4.3 mm
11:43 AM 32.4°F0.2°C 27.0°F-2.8°C 80% 4.7 mph SE7.6 kmh SE 8.1 mph13.0 kmh 30.19 in1022.4 mb 0.00 in0.0 mm 0.00 in0.0 mm 0.17 in4.3 mm
11:48 AM 32.5°F0.3°C 27.1°F-2.7°C 80% 5.4 mph SE8.7 kmh SE 9.8 mph15.8 kmh 30.18 in1022.0 mb 0.00 in0.0 mm 0.00 in0.0 mm 0.17 in4.3 mm
11:53 AM 32.5°F0.3°C 27.1°F-2.7°C 80% 5.6 mph SSE9.0 kmh SSE 9.4 mph15.1 kmh 30.18 in1022.0 mb 0.00 in0.0 mm 0.00 in0.0 mm 0.17 in4.3 mm
11:58 AM 32.7°F0.4°C 27.0°F-2.8°C 79% 4.7 mph SE7.6 kmh SE 6.7 mph10.8 kmh 30.17 in1021.7 mb 0.00 in0.0 mm 0.00 in0.0 mm 0.17 in4.3 mm
12:03 PM 32.7°F0.4°C 27.0°F-2.8°C 79% 4.7 mph SE7.6 kmh SE 8.1 mph13.0 kmh 30.16 in1021.3 mb 0.00 in0.0 mm 0.00 in0.0 mm 0.17 in4.3 mm
12:08 PM 32.9°F0.5°C 27.1°F-2.7°C 79% 5.1 mph SSE8.2 kmh SSE 7.6 mph12.2 kmh 30.16 in1021.3 mb 0.00 in0.0 mm 0.00 in0.0 mm 0.17 in4.3 mm
12:13 PM 33.1°F0.6°C 27.0°F-2.8°C 78% 4.0 mph SSE6.4 kmh SSE 6.3 mph10.1 kmh 30.16 in1021.3 mb 0.00 in0.0 mm 0.00 in0.0 mm 0.17 in4.3 mm
12:18 PM 33.3°F0.7°C 27.1°F-2.7°C 78% 5.8 mph SE9.3 kmh SE 7.4 mph11.9 kmh 30.14 in1020.7 mb 0.00 in0.0 mm 0.00 in0.0 mm 0.17 in4.3 mm
12:23 PM 33.4°F0.8°C 27.0°F-2.8°C 77% 5.1 mph S8.2 kmh S 7.6 mph12.2 kmh 30.14 in1020.7 mb 0.00 in0.0 mm 0.00 in0.0 mm 0.17 in4.3 mm
12:28 PM 33.6°F0.9°C 26.8°F-2.9°C 76% 6.3 mph SE10.1 kmh SE 8.5 mph13.7 kmh 30.12 in1020.0 mb 0.00 in0.0 mm 0.00 in0.0 mm 0.17 in4.3 mm
12:33 PM 33.8°F1.0°C 27.3°F-2.6°C 77% 4.9 mph SE7.9 kmh SE 8.1 mph13.0 kmh 30.11 in1019.6 mb 0.00 in0.0 mm 0.00 in0.0 mm 0.17 in4.3 mm
12:38 PM 34.0°F1.1°C 27.1°F-2.7°C 76% 4.7 mph SSE7.6 kmh SSE 6.7 mph10.8 kmh 30.09 in1019.0 mb 0.00 in0.0 mm 0.00 in0.0 mm 0.17 in4.3 mm
12:43 PM 34.3°F1.3°C 27.3°F-2.6°C 75% 6.5 mph SSE10.5 kmh SSE 11.2 mph18.0 kmh 30.09 in1019.0 mb 0.00 in0.0 mm 0.00 in0.0 mm 0.17 in4.3 mm
12:48 PM 34.7°F1.5°C 27.5°F-2.5°C 75% 4.0 mph SSE6.4 kmh SSE 5.6 mph9.0 kmh 30.09 in1019.0 mb 0.00 in0.0 mm 0.00 in0.0 mm 0.17 in4.3 mm
12:53 PM 34.9°F1.6°C 27.1°F-2.7°C 73% 6.7 mph S10.8 kmh S 11.0 mph17.7 kmh 30.08 in1018.6 mb 0.00 in0.0 mm 0.00 in0.0 mm 0.17 in4.3 mm
12:58 PM 35.1°F1.7°C 27.0°F-2.8°C 72% 6.9 mph SSE11.1 kmh SSE 11.9 mph19.2 kmh 30.07 in1018.3 mb 0.00 in0.0 mm 0.00 in0.0 mm 0.17 in4.3 mm
01:03 PM 35.4°F1.9°C 27.3°F-2.6°C 72% 7.2 mph SSE11.6 kmh SSE 9.4 mph15.1 kmh 30.07 in1018.3 mb 0.00 in0.0 mm 0.00 in0.0 mm 0.17 in4.3 mm
01:08 PM 36.0°F2.2°C 28.2°F-2.1°C 73% 5.1 mph SSE8.2 kmh SSE 8.7 mph14.0 kmh 30.06 in1017.9 mb 0.00 in0.0 mm 0.00 in0.0 mm 0.17 in4.3 mm
01:13 PM 36.3°F2.4°C 28.6°F-1.9°C 73% 5.6 mph SSE9.0 kmh SSE 9.2 mph14.8 kmh 30.05 in1017.6 mb 0.00 in0.0 mm 0.00 in0.0 mm 0.17 in4.3 mm
01:18 PM 36.5°F2.5°C 28.6°F-1.9°C 73% 5.1 mph SE8.2 kmh SE 9.4 mph15.1 kmh 30.04 in1017.3 mb 0.00 in0.0 mm 0.00 in0.0 mm 0.17 in4.3 mm
01:23 PM 36.7°F2.6°C 28.2°F-2.1°C 71% 6.9 mph SSE11.1 kmh SSE 13.2 mph21.2 kmh 30.04 in1017.3 mb 0.00 in0.0 mm 0.00 in0.0 mm 0.17 in4.3 mm
01:28 PM 36.9°F2.7°C 28.8°F-1.8°C 72% 8.9 mph S14.3 kmh S 12.5 mph20.1 kmh 30.03 in1016.9 mb 0.00 in0.0 mm 0.00 in0.0 mm 0.17 in4.3 mm
01:33 PM 37.0°F2.8°C 28.6°F-1.9°C 71% 7.4 mph SSE11.9 kmh SSE 12.8 mph20.6 kmh 30.03 in1016.9 mb 0.00 in0.0 mm 0.00 in0.0 mm 0.17 in4.3 mm
01:38 PM 37.0°F2.8°C 28.6°F-1.9°C 71% 5.6 mph SSE9.0 kmh SSE 11.2 mph18.0 kmh 30.02 in1016.6 mb 0.00 in0.0 mm 0.00 in0.0 mm 0.17 in4.3 mm
01:43 PM 37.0°F2.8°C 28.2°F-2.1°C 70% 10.7 mph SSE17.2 kmh SSE 17.9 mph28.8 kmh 30.02 in1016.6 mb 0.00 in0.0 mm 0.00 in0.0 mm 0.17 in4.3 mm
01:48 PM 37.0°F2.8°C 28.2°F-2.1°C 70% 5.4 mph SE8.7 kmh SE 8.5 mph13.7 kmh 30.01 in1016.3 mb 0.00 in0.0 mm 0.00 in0.0 mm 0.17 in4.3 mm
01:53 PM 37.4°F3.0°C 28.6°F-1.9°C 70% 6.3 mph SSE10.1 kmh SSE 10.7 mph17.2 kmh 30.01 in1016.3 mb 0.00 in0.0 mm 0.00 in0.0 mm 0.17 in4.3 mm
01:58 PM 37.4°F3.0°C 28.6°F-1.9°C 70% 6.5 mph SSE10.5 kmh SSE 9.2 mph14.8 kmh 30.01 in1016.3 mb 0.00 in0.0 mm 0.00 in0.0 mm 0.17 in4.3 mm
02:03 PM 37.6°F3.1°C 28.8°F-1.8°C 70% 8.1 mph SSE13.0 kmh SSE 16.8 mph27.0 kmh 30.01 in1016.3 mb 0.00 in0.0 mm 0.00 in0.0 mm 0.17 in4.3 mm
02:08 PM 37.8°F3.2°C 28.6°F-1.9°C 69% 7.6 mph S12.2 kmh S 12.5 mph20.1 kmh 30.00 in1015.9 mb 0.00 in0.0 mm 0.00 in0.0 mm 0.17 in4.3 mm
02:13 PM 37.9°F3.3°C 27.7°F-2.4°C 66% 6.5 mph SE10.5 kmh SE 11.0 mph17.7 kmh 30.00 in1015.9 mb 0.00 in0.0 mm 0.00 in0.0 mm 0.17 in4.3 mm
02:18 PM 38.1°F3.4°C 28.0°F-2.2°C 67% 7.2 mph SSE11.6 kmh SSE 10.1 mph16.3 kmh 29.99 in1015.6 mb 0.00 in0.0 mm 0.00 in0.0 mm 0.17 in4.3 mm
02:23 PM 38.3°F3.5°C 28.9°F-1.7°C 69% 7.6 mph S12.2 kmh S 12.3 mph19.8 kmh 29.98 in1015.2 mb 0.00 in0.0 mm 0.00 in0.0 mm 0.17 in4.3 mm
02:28 PM 38.3°F3.5°C 28.9°F-1.7°C 69% 5.8 mph SE9.3 kmh SE 7.6 mph12.2 kmh 29.98 in1015.2 mb 0.00 in0.0 mm 0.00 in0.0 mm 0.17 in4.3 mm
02:33 PM 38.5°F3.6°C 28.4°F-2.0°C 67% 7.2 mph S11.6 kmh S 12.3 mph19.8 kmh 29.97 in1014.9 mb 0.00 in0.0 mm 0.00 in0.0 mm 0.17 in4.3 mm
02:38 PM 38.5°F3.6°C 28.4°F-2.0°C 67% 7.2 mph SSE11.6 kmh SSE 15.2 mph24.5 kmh 29.97 in1014.9 mb 0.00 in0.0 mm 0.00 in0.0 mm 0.17 in4.3 mm
02:43 PM 38.5°F3.6°C 28.4°F-2.0°C 67% 5.8 mph SSE9.3 kmh SSE 8.9 mph14.3 kmh 29.97 in1014.9 mb 0.00 in0.0 mm 0.00 in0.0 mm 0.17 in4.3 mm
02:48 PM 38.7°F3.7°C 29.3°F-1.5°C 69% 9.2 mph S14.8 kmh S 15.9 mph25.6 kmh 29.96 in1014.6 mb 0.00 in0.0 mm 0.00 in0.0 mm 0.17 in4.3 mm
02:53 PM 38.8°F3.8°C 28.8°F-1.8°C 67% 7.8 mph SSE12.6 kmh SSE 12.3 mph19.8 kmh 29.96 in1014.6 mb 0.00 in0.0 mm 0.00 in0.0 mm 0.17 in4.3 mm
02:58 PM 39.0°F3.9°C 28.9°F-1.7°C 67% 9.2 mph S14.8 kmh S 14.1 mph22.7 kmh 29.96 in1014.6 mb 0.00 in0.0 mm 0.00 in0.0 mm 0.17 in4.3 mm
03:03 PM 39.2°F4.0°C 29.8°F-1.2°C 69% 6.3 mph S10.1 kmh S 9.6 mph15.4 kmh 29.95 in1014.2 mb 0.00 in0.0 mm 0.00 in0.0 mm 0.17 in4.3 mm
03:08 PM 39.4°F4.1°C 28.9°F-1.7°C 66% 8.5 mph S13.7 kmh S 17.2 mph27.7 kmh 29.94 in1013.9 mb 0.00 in0.0 mm 0.00 in0.0 mm 0.17 in4.3 mm
03:13 PM 39.6°F4.2°C 29.5°F-1.4°C 67% 4.7 mph SE7.6 kmh SE 7.2 mph11.6 kmh 29.95 in1014.2 mb 0.00 in0.0 mm 0.00 in0.0 mm 0.17 in4.3 mm
03:18 PM 39.6°F4.2°C 29.1°F-1.6°C 66% 8.3 mph SSE13.4 kmh SSE 12.1 mph19.5 kmh 29.95 in1014.2 mb 0.00 in0.0 mm 0.00 in0.0 mm 0.17 in4.3 mm
03:23 PM 39.7°F4.3°C 29.7°F-1.3°C 67% 4.7 mph SSE7.6 kmh SSE 6.7 mph10.8 kmh 29.95 in1014.2 mb 0.00 in0.0 mm 0.00 in0.0 mm 0.17 in4.3 mm
03:28 PM 39.9°F4.4°C 29.5°F-1.4°C 66% 7.6 mph S12.2 kmh S 10.7 mph17.2 kmh 29.95 in1014.2 mb 0.00 in0.0 mm 0.00 in0.0 mm 0.17 in4.3 mm
03:33 PM 40.1°F4.5°C 29.7°F-1.3°C 66% 6.0 mph SSE9.7 kmh SSE 10.1 mph16.3 kmh 29.95 in1014.2 mb 0.00 in0.0 mm 0.00 in0.0 mm 0.17 in4.3 mm
03:38 PM 40.1°F4.5°C 29.7°F-1.3°C 66% 6.3 mph SSE10.1 kmh SSE 8.5 mph13.7 kmh 29.94 in1013.9 mb 0.00 in0.0 mm 0.00 in0.0 mm 0.17 in4.3 mm
03:43 PM 40.3°F4.6°C 29.8°F-1.2°C 66% 6.3 mph SSE10.1 kmh SSE 10.1 mph16.3 kmh 29.94 in1013.9 mb 0.00 in0.0 mm 0.00 in0.0 mm 0.17 in4.3 mm
03:48 PM 40.5°F4.7°C 30.0°F-1.1°C 66% 5.6 mph S9.0 kmh S 11.2 mph18.0 kmh 29.93 in1013.5 mb 0.00 in0.0 mm 0.00 in0.0 mm 0.17 in4.3 mm
03:53 PM 40.6°F4.8°C 30.2°F-1.0°C 66% 6.0 mph SSE9.7 kmh SSE 8.9 mph14.3 kmh 29.93 in1013.5 mb 0.00 in0.0 mm 0.00 in0.0 mm 0.17 in4.3 mm
03:58 PM 40.8°F4.9°C 30.7°F-0.7°C 67% 4.3 mph SSW6.9 kmh SSW 5.6 mph9.0 kmh 29.93 in1013.5 mb 0.00 in0.0 mm 0.00 in0.0 mm 0.17 in4.3 mm
04:03 PM 41.0°F5.0°C 30.6°F-0.8°C 66% 8.7 mph SSE14.0 kmh SSE 13.2 mph21.2 kmh 29.92 in1013.2 mb 0.00 in0.0 mm 0.00 in0.0 mm 0.17 in4.3 mm
04:09 PM 41.4°F5.2°C 30.9°F-0.6°C 66% 6.3 mph S10.1 kmh S 8.3 mph13.4 kmh 29.92 in1013.2 mb 0.00 in0.0 mm 0.00 in0.0 mm 0.17 in4.3 mm
04:14 PM 41.5°F5.3°C 31.1°F-0.5°C 66% 6.9 mph S11.1 kmh S 13.2 mph21.2 kmh 29.92 in1013.2 mb 0.00 in0.0 mm 0.00 in0.0 mm 0.17 in4.3 mm
04:18 PM 41.7°F5.4°C 31.3°F-0.4°C 66% 8.3 mph S13.4 kmh S 11.0 mph17.7 kmh 29.90 in1012.5 mb 0.00 in0.0 mm 0.00 in0.0 mm 0.17 in4.3 mm
04:24 PM 41.7°F5.4°C 31.3°F-0.4°C 66% 5.8 mph S9.3 kmh S 8.5 mph13.7 kmh 29.91 in1012.9 mb 0.00 in0.0 mm 0.00 in0.0 mm 0.17 in4.3 mm
04:29 PM 42.1°F5.6°C 31.1°F-0.5°C 65% 6.7 mph S10.8 kmh S 10.3 mph16.6 kmh 29.91 in1012.9 mb 0.00 in0.0 mm 0.00 in0.0 mm 0.17 in4.3 mm
04:34 PM 42.1°F5.6°C 31.5°F-0.3°C 66% 7.2 mph S11.6 kmh S 9.8 mph15.8 kmh 29.90 in1012.5 mb 0.00 in0.0 mm 0.00 in0.0 mm 0.17 in4.3 mm
04:39 PM 42.1°F5.6°C 31.5°F-0.3°C 66% 5.6 mph S9.0 kmh S 8.5 mph13.7 kmh 29.90 in1012.5 mb 0.00 in0.0 mm 0.00 in0.0 mm 0.17 in4.3 mm
04:44 PM 42.3°F5.7°C 31.6°F-0.2°C 66% 8.9 mph S14.3 kmh S 15.2 mph24.5 kmh 29.89 in1012.2 mb 0.00 in0.0 mm 0.00 in0.0 mm 0.17 in4.3 mm
04:49 PM 42.3°F5.7°C 31.6°F-0.2°C 66% 6.0 mph S9.7 kmh S 8.1 mph13.0 kmh 29.87 in1011.5 mb 0.00 in0.0 mm 0.00 in0.0 mm 0.17 in4.3 mm
04:54 PM 42.1°F5.6°C 31.5°F-0.3°C 66% 6.7 mph SSE10.8 kmh SSE 9.8 mph15.8 kmh 29.87 in1011.5 mb 0.00 in0.0 mm 0.00 in0.0 mm 0.17 in4.3 mm
04:59 PM 42.3°F5.7°C 31.6°F-0.2°C 66% 5.1 mph S8.2 kmh S 8.1 mph13.0 kmh 29.87 in1011.5 mb 0.00 in0.0 mm 0.00 in0.0 mm 0.17 in4.3 mm
05:04 PM 42.3°F5.7°C 31.6°F-0.2°C 66% 4.9 mph SSE7.9 kmh SSE 9.2 mph14.8 kmh 29.87 in1011.5 mb 0.00 in0.0 mm 0.00 in0.0 mm 0.17 in4.3 mm
05:09 PM 42.4°F5.8°C 31.8°F-0.1°C 66% 5.6 mph SSE9.0 kmh SSE 9.8 mph15.8 kmh 29.88 in1011.9 mb 0.00 in0.0 mm 0.00 in0.0 mm 0.17 in4.3 mm
05:14 PM 42.6°F5.9°C 32.0°F0.0°C 66% 4.9 mph S7.9 kmh S 8.5 mph13.7 kmh 29.88 in1011.9 mb 0.00 in0.0 mm 0.00 in0.0 mm 0.17 in4.3 mm
05:19 PM 42.6°F5.9°C 32.0°F0.0°C 66% 4.7 mph S7.6 kmh S 12.1 mph19.5 kmh 29.88 in1011.9 mb 0.00 in0.0 mm 0.00 in0.0 mm 0.17 in4.3 mm
05:24 PM 42.8°F6.0°C 32.2°F0.1°C 66% 7.2 mph SSE11.6 kmh SSE 10.1 mph16.3 kmh 29.88 in1011.9 mb 0.00 in0.0 mm 0.00 in0.0 mm 0.17 in4.3 mm
05:29 PM 42.8°F6.0°C 32.2°F0.1°C 66% 5.6 mph S9.0 kmh S 7.6 mph12.2 kmh 29.88 in1011.9 mb 0.00 in0.0 mm 0.00 in0.0 mm 0.17 in4.3 mm
05:34 PM 43.0°F6.1°C 32.4°F0.2°C 66% 6.3 mph S10.1 kmh S 9.2 mph14.8 kmh 29.88 in1011.9 mb 0.00 in0.0 mm 0.00 in0.0 mm 0.17 in4.3 mm
05:39 PM 43.0°F6.1°C 32.4°F0.2°C 66% 4.0 mph SE6.4 kmh SE 7.6 mph12.2 kmh 29.88 in1011.9 mb 0.00 in0.0 mm 0.00 in0.0 mm 0.17 in4.3 mm
05:44 PM 43.0°F6.1°C 32.4°F0.2°C 66% 4.5 mph S7.2 kmh S 6.5 mph10.5 kmh 29.87 in1011.5 mb 0.00 in0.0 mm 0.00 in0.0 mm 0.17 in4.3 mm
05:49 PM 43.0°F6.1°C 32.4°F0.2°C 66% 5.8 mph S9.3 kmh S 8.9 mph14.3 kmh 29.87 in1011.5 mb 0.00 in0.0 mm 0.00 in0.0 mm 0.17 in4.3 mm
05:54 PM 43.0°F6.1°C 32.4°F0.2°C 66% 5.6 mph SSE9.0 kmh SSE 9.4 mph15.1 kmh 29.87 in1011.5 mb 0.00 in0.0 mm 0.00 in0.0 mm 0.17 in4.3 mm
05:59 PM 43.2°F6.2°C 32.5°F0.3°C 66% 6.3 mph SSE10.1 kmh SSE 8.9 mph14.3 kmh 29.86 in1011.2 mb 0.00 in0.0 mm 0.00 in0.0 mm 0.17 in4.3 mm
06:04 PM 43.2°F6.2°C 32.9°F0.5°C 67% 6.9 mph S11.1 kmh S 11.2 mph18.0 kmh 29.86 in1011.2 mb 0.00 in0.0 mm 0.00 in0.0 mm 0.17 in4.3 mm
06:09 PM 43.2°F6.2°C 33.6°F0.9°C 69% 6.5 mph S10.5 kmh S 9.6 mph15.4 kmh 29.84 in1010.5 mb 0.00 in0.0 mm 0.00 in0.0 mm 0.17 in4.3 mm
06:14 PM 43.0°F6.1°C 34.2°F1.2°C 71% 7.2 mph S11.6 kmh S 10.5 mph16.9 kmh 29.83 in1010.2 mb 0.00 in0.0 mm 0.00 in0.0 mm 0.17 in4.3 mm
06:19 PM 42.8°F6.0°C 34.3°F1.3°C 72% 4.9 mph SE7.9 kmh SE 8.5 mph13.7 kmh 29.81 in1009.5 mb 0.00 in0.0 mm 0.00 in0.0 mm 0.17 in4.3 mm
06:24 PM 42.6°F5.9°C 34.2°F1.2°C 72% 6.0 mph S9.7 kmh S 10.1 mph16.3 kmh 29.81 in1009.5 mb 0.00 in0.0 mm 0.00 in0.0 mm 0.17 in4.3 mm
06:29 PM 42.8°F6.0°C 34.3°F1.3°C 72% 6.5 mph SE10.5 kmh SE 11.0 mph17.7 kmh 29.81 in1009.5 mb 0.00 in0.0 mm 0.00 in0.0 mm 0.17 in4.3 mm
06:34 PM 42.8°F6.0°C 34.3°F1.3°C 72% 7.2 mph S11.6 kmh S 9.2 mph14.8 kmh 29.81 in1009.5 mb 0.00 in0.0 mm 0.00 in0.0 mm 0.17 in4.3 mm
06:39 PM 42.8°F6.0°C 34.3°F1.3°C 72% 6.0 mph SSE9.7 kmh SSE 8.3 mph13.4 kmh 29.80 in1009.1 mb 0.00 in0.0 mm 0.00 in0.0 mm 0.17 in4.3 mm
06:44 PM 43.0°F6.1°C 34.9°F1.6°C 73% 8.3 mph S13.4 kmh S 13.6 mph21.9 kmh 29.77 in1008.1 mb 0.00 in0.0 mm 0.00 in0.0 mm 0.17 in4.3 mm
06:49 PM 43.0°F6.1°C 34.9°F1.6°C 73% 5.8 mph S9.3 kmh S 9.6 mph15.4 kmh 29.78 in1008.5 mb 0.00 in0.0 mm 0.00 in0.0 mm 0.17 in4.3 mm
06:54 PM 43.0°F6.1°C 35.6°F2.0°C 75% 6.5 mph SSE10.5 kmh SSE 10.1 mph16.3 kmh 29.79 in1008.8 mb 0.00 in0.0 mm 0.00 in0.0 mm 0.17 in4.3 mm
06:59 PM 43.0°F6.1°C 35.6°F2.0°C 75% 5.1 mph SSE8.2 kmh SSE 8.7 mph14.0 kmh 29.79 in1008.8 mb 0.00 in0.0 mm 0.00 in0.0 mm 0.17 in4.3 mm
07:04 PM 43.2°F6.2°C 35.8°F2.1°C 75% 4.7 mph S7.6 kmh S 6.9 mph11.1 kmh 29.78 in1008.5 mb 0.00 in0.0 mm 0.00 in0.0 mm 0.17 in4.3 mm
07:09 PM 43.2°F6.2°C 35.8°F2.1°C 75% 4.5 mph SSE7.2 kmh SSE 6.5 mph10.5 kmh 29.80 in1009.1 mb 0.00 in0.0 mm 0.00 in0.0 mm 0.17 in4.3 mm
07:14 PM 43.3°F6.3°C 36.0°F2.2°C 75% 6.3 mph S10.1 kmh S 12.3 mph19.8 kmh 29.79 in1008.8 mb 0.00 in0.0 mm 0.00 in0.0 mm 0.17 in4.3 mm
07:19 PM 43.3°F6.3°C 36.0°F2.2°C 75% 5.6 mph SSE9.0 kmh SSE 8.7 mph14.0 kmh 29.78 in1008.5 mb 0.01 in0.3 mm 0.12 in3.0 mm 0.18 in4.6 mm
07:24 PM 43.2°F6.2°C 37.0°F2.8°C 79% 5.4 mph SSW8.7 kmh SSW 8.7 mph14.0 kmh 29.78 in1008.5 mb 0.02 in0.5 mm 0.12 in3.0 mm 0.19 in4.8 mm
07:29 PM 43.0°F6.1°C 36.9°F2.7°C 79% 4.9 mph SSE7.9 kmh SSE 7.8 mph12.6 kmh 29.78 in1008.5 mb 0.03 in0.8 mm 0.12 in3.0 mm 0.20 in5.1 mm
07:34 PM 43.0°F6.1°C 37.2°F2.9°C 80% 4.5 mph S7.2 kmh S 6.5 mph10.5 kmh 29.78 in1008.5 mb 0.03 in0.8 mm 0.00 in0.0 mm 0.20 in5.1 mm
07:39 PM 43.2°F6.2°C 37.0°F2.8°C 79% 4.9 mph SSE7.9 kmh SSE 8.1 mph13.0 kmh 29.78 in1008.5 mb 0.03 in0.8 mm 0.00 in0.0 mm 0.20 in5.1 mm
07:44 PM 43.2°F6.2°C 37.0°F2.8°C 79% 5.8 mph S9.3 kmh S 10.1 mph16.3 kmh 29.78 in1008.5 mb 0.03 in0.8 mm 0.00 in0.0 mm 0.20 in5.1 mm
07:49 PM 43.5°F6.4°C 37.0°F2.8°C 78% 5.8 mph S9.3 kmh S 8.9 mph14.3 kmh 29.78 in1008.5 mb 0.03 in0.8 mm 0.00 in0.0 mm 0.20 in5.1 mm
07:54 PM 43.7°F6.5°C 37.2°F2.9°C 78% 5.6 mph S9.0 kmh S 11.2 mph18.0 kmh 29.78 in1008.5 mb 0.03 in0.8 mm 0.00 in0.0 mm 0.20 in5.1 mm
07:59 PM 43.5°F6.4°C 37.0°F2.8°C 78% 4.7 mph S7.6 kmh S 6.7 mph10.8 kmh 29.78 in1008.5 mb 0.03 in0.8 mm 0.00 in0.0 mm 0.20 in5.1 mm
08:04 PM 43.5°F6.4°C 37.4°F3.0°C 79% 6.7 mph S10.8 kmh S 11.2 mph18.0 kmh 29.79 in1008.8 mb 0.02 in0.5 mm 0.00 in0.0 mm 0.20 in5.1 mm
08:09 PM 43.5°F6.4°C 37.8°F3.2°C 80% 5.1 mph SW8.2 kmh SW 6.9 mph11.1 kmh 29.79 in1008.8 mb 0.03 in0.8 mm 0.12 in3.0 mm 0.20 in5.1 mm
08:14 PM 43.5°F6.4°C 37.8°F3.2°C 80% 5.8 mph SSW9.3 kmh SSW 8.5 mph13.7 kmh 29.80 in1009.1 mb 0.03 in0.8 mm 0.00 in0.0 mm 0.20 in5.1 mm
08:19 PM 43.5°F6.4°C 38.1°F3.4°C 81% 3.6 mph S5.8 kmh S 4.7 mph7.6 kmh 29.80 in1009.1 mb 0.02 in0.5 mm 0.00 in0.0 mm 0.20 in5.1 mm
08:24 PM 43.7°F6.5°C 37.9°F3.3°C 80% 6.3 mph S10.1 kmh S 11.6 mph18.7 kmh 29.79 in1008.8 mb 0.01 in0.3 mm 0.00 in0.0 mm 0.20 in5.1 mm
08:29 PM 44.2°F6.8°C 38.1°F3.4°C 79% 6.9 mph SSW11.1 kmh SSW 10.1 mph16.3 kmh 29.80 in1009.1 mb 0.01 in0.3 mm 0.00 in0.0 mm 0.20 in5.1 mm
08:34 PM 44.4°F6.9°C 38.3°F3.5°C 79% 6.3 mph S10.1 kmh S 11.9 mph19.2 kmh 29.80 in1009.1 mb 0.01 in0.3 mm 0.00 in0.0 mm 0.20 in5.1 mm
08:39 PM 44.6°F7.0°C 38.5°F3.6°C 79% 7.6 mph SSW12.2 kmh SSW 12.1 mph19.5 kmh 29.80 in1009.1 mb 0.01 in0.3 mm 0.00 in0.0 mm 0.20 in5.1 mm
08:44 PM 44.8°F7.1°C 39.0°F3.9°C 80% 6.5 mph SW10.5 kmh SW 8.5 mph13.7 kmh 29.80 in1009.1 mb 0.01 in0.3 mm 0.00 in0.0 mm 0.21 in5.3 mm
08:49 PM 45.0°F7.2°C 39.2°F4.0°C 80% 8.9 mph S14.3 kmh S 18.6 mph29.9 kmh 29.80 in1009.1 mb 0.01 in0.3 mm 0.00 in0.0 mm 0.21 in5.3 mm
08:54 PM 45.1°F7.3°C 39.4°F4.1°C 80% 6.3 mph S10.1 kmh S 11.6 mph18.7 kmh 29.80 in1009.1 mb 0.01 in0.3 mm 0.00 in0.0 mm 0.21 in5.3 mm
08:59 PM 45.1°F7.3°C 39.7°F4.3°C 81% 5.6 mph SSW9.0 kmh SSW 9.2 mph14.8 kmh 29.80 in1009.1 mb 0.01 in0.3 mm 0.00 in0.0 mm 0.21 in5.3 mm
09:04 PM 45.1°F7.3°C 39.9°F4.4°C 82% 6.3 mph S10.1 kmh S 9.8 mph15.8 kmh 29.79 in1008.8 mb 0.01 in0.3 mm 0.00 in0.0 mm 0.21 in5.3 mm
09:09 PM 45.1°F7.3°C 39.9°F4.4°C 82% 7.2 mph SW11.6 kmh SW 10.3 mph16.6 kmh 29.79 in1008.8 mb 0.00 in0.0 mm 0.00 in0.0 mm 0.21 in5.3 mm
09:14 PM 45.3°F7.4°C 39.9°F4.4°C 81% 3.6 mph S5.8 kmh S 4.7 mph7.6 kmh 29.79 in1008.8 mb 0.00 in0.0 mm 0.00 in0.0 mm 0.21 in5.3 mm
09:19 PM 45.5°F7.5°C 39.9°F4.4°C 81% 5.1 mph S8.2 kmh S 7.4 mph11.9 kmh 29.79 in1008.8 mb 0.00 in0.0 mm 0.00 in0.0 mm 0.21 in5.3 mm
09:24 PM 45.7°F7.6°C 40.1°F4.5°C 81% 9.8 mph S15.8 kmh S 19.9 mph32.0 kmh 29.79 in1008.8 mb 0.00 in0.0 mm 0.00 in0.0 mm 0.21 in5.3 mm
09:29 PM 45.9°F7.7°C 40.3°F4.6°C 81% 8.7 mph SSW14.0 kmh SSW 13.0 mph20.9 kmh 29.78 in1008.5 mb 0.00 in0.0 mm 0.00 in0.0 mm 0.21 in5.3 mm
09:34 PM 46.0°F7.8°C 40.5°F4.7°C 81% 5.4 mph SSW8.7 kmh SSW 7.6 mph12.2 kmh 29.78 in1008.5 mb 0.00 in0.0 mm 0.00 in0.0 mm 0.21 in5.3 mm
09:39 PM 46.2°F7.9°C 40.6°F4.8°C 81% 5.8 mph SSW9.3 kmh SSW 8.9 mph14.3 kmh 29.78 in1008.5 mb 0.00 in0.0 mm 0.00 in0.0 mm 0.21 in5.3 mm
09:44 PM 46.4°F8.0°C 40.8°F4.9°C 81% 5.4 mph S8.7 kmh S 7.6 mph12.2 kmh 29.78 in1008.5 mb 0.00 in0.0 mm 0.00 in0.0 mm 0.21 in5.3 mm
09:49 PM 46.8°F8.2°C 41.0°F5.0°C 80% 6.9 mph S11.1 kmh S 12.5 mph20.1 kmh 29.78 in1008.5 mb 0.00 in0.0 mm 0.00 in0.0 mm 0.21 in5.3 mm
09:54 PM 47.1°F8.4°C 41.2°F5.1°C 80% 8.1 mph SW13.0 kmh SW 11.2 mph18.0 kmh 29.78 in1008.5 mb 0.00 in0.0 mm 0.00 in0.0 mm 0.21 in5.3 mm
09:59 PM 47.1°F8.4°C 41.2°F5.1°C 80% 5.8 mph S9.3 kmh S 8.5 mph13.7 kmh 29.78 in1008.5 mb 0.00 in0.0 mm 0.00 in0.0 mm 0.21 in5.3 mm
10:04 PM 47.3°F8.5°C 41.4°F5.2°C 80% 6.7 mph SSW10.8 kmh SSW 13.6 mph21.9 kmh 29.78 in1008.5 mb 0.00 in0.0 mm 0.00 in0.0 mm 0.21 in5.3 mm
10:09 PM 47.7°F8.7°C 41.7°F5.4°C 80% 6.7 mph SSW10.8 kmh SSW 9.2 mph14.8 kmh 29.78 in1008.5 mb 0.00 in0.0 mm 0.00 in0.0 mm 0.21 in5.3 mm
10:14 PM 47.7°F8.7°C 41.7°F5.4°C 80% 5.8 mph SSW9.3 kmh SSW 8.3 mph13.4 kmh 29.78 in1008.5 mb 0.00 in0.0 mm 0.00 in0.0 mm 0.21 in5.3 mm
10:19 PM 47.8°F8.8°C 42.3°F5.7°C 81% 6.9 mph SSW11.1 kmh SSW 11.9 mph19.2 kmh 29.78 in1008.5 mb 0.00 in0.0 mm 0.00 in0.0 mm 0.21 in5.3 mm
10:24 PM 48.0°F8.9°C 42.4°F5.8°C 81% 5.4 mph SSW8.7 kmh SSW 7.4 mph11.9 kmh 29.78 in1008.5 mb 0.00 in0.0 mm 0.00 in0.0 mm 0.21 in5.3 mm
10:29 PM 48.2°F9.0°C 42.6°F5.9°C 81% 4.9 mph SSW7.9 kmh SSW 8.9 mph14.3 kmh 29.78 in1008.5 mb 0.00 in0.0 mm 0.00 in0.0 mm 0.21 in5.3 mm
10:34 PM 48.4°F9.1°C 42.8°F6.0°C 81% 7.6 mph SSW12.2 kmh SSW 12.8 mph20.6 kmh 29.78 in1008.5 mb 0.00 in0.0 mm 0.00 in0.0 mm 0.21 in5.3 mm
10:39 PM 48.6°F9.2°C 43.0°F6.1°C 81% 5.1 mph SW8.2 kmh SW 8.3 mph13.4 kmh 29.78 in1008.5 mb 0.00 in0.0 mm 0.00 in0.0 mm 0.21 in5.3 mm
10:44 PM 48.9°F9.4°C 43.3°F6.3°C 81% 5.4 mph SSW8.7 kmh SSW 8.5 mph13.7 kmh 29.78 in1008.5 mb 0.00 in0.0 mm 0.00 in0.0 mm 0.21 in5.3 mm
10:49 PM 49.3°F9.6°C 43.3°F6.3°C 80% 6.9 mph SW11.1 kmh SW 11.6 mph18.7 kmh 29.79 in1008.8 mb 0.00 in0.0 mm 0.00 in0.0 mm 0.21 in5.3 mm
10:54 PM 49.8°F9.9°C 43.9°F6.6°C 80% 5.1 mph S8.2 kmh S 9.6 mph15.4 kmh 29.79 in1008.8 mb 0.00 in0.0 mm 0.00 in0.0 mm 0.21 in5.3 mm
10:59 PM 50.0°F10.0°C 43.7°F6.5°C 79% 5.1 mph S8.2 kmh S 9.4 mph15.1 kmh 29.79 in1008.8 mb 0.00 in0.0 mm 0.00 in0.0 mm 0.21 in5.3 mm
11:04 PM 50.2°F10.1°C 44.2°F6.8°C 80% 4.9 mph SSW7.9 kmh SSW 10.1 mph16.3 kmh 29.79 in1008.8 mb 0.00 in0.0 mm 0.00 in0.0 mm 0.21 in5.3 mm
11:09 PM 50.5°F10.3°C 44.2°F6.8°C 79% 7.2 mph SSW11.6 kmh SSW 12.8 mph20.6 kmh 29.79 in1008.8 mb 0.00 in0.0 mm 0.00 in0.0 mm 0.21 in5.3 mm
11:14 PM 50.5°F10.3°C 44.2°F6.8°C 79% 7.4 mph S11.9 kmh S 11.2 mph18.0 kmh 29.79 in1008.8 mb 0.00 in0.0 mm 0.00 in0.0 mm 0.21 in5.3 mm
11:19 PM 50.7°F10.4°C 44.4°F6.9°C 79% 7.6 mph SSW12.2 kmh SSW 11.9 mph19.2 kmh 29.80 in1009.1 mb 0.00 in0.0 mm 0.00 in0.0 mm 0.21 in5.3 mm
11:24 PM 51.1°F10.6°C 44.8°F7.1°C 79% 4.0 mph SW6.4 kmh SW 5.1 mph8.2 kmh 29.80 in1009.1 mb 0.00 in0.0 mm 0.00 in0.0 mm 0.21 in5.3 mm
11:29 PM 51.1°F10.6°C 44.8°F7.1°C 79% 3.6 mph SSW5.8 kmh SSW 5.4 mph8.7 kmh 29.80 in1009.1 mb 0.00 in0.0 mm 0.00 in0.0 mm 0.21 in5.3 mm
11:34 PM 51.1°F10.6°C 44.8°F7.1°C 79% 4.9 mph SW7.9 kmh SW 9.8 mph15.8 kmh 29.80 in1009.1 mb 0.00 in0.0 mm 0.00 in0.0 mm 0.21 in5.3 mm
11:39 PM 51.3°F10.7°C 45.0°F7.2°C 79% 4.9 mph SSW7.9 kmh SSW 8.1 mph13.0 kmh 29.80 in1009.1 mb 0.00 in0.0 mm 0.00 in0.0 mm 0.21 in5.3 mm
11:44 PM 51.6°F10.9°C 45.7°F7.6°C 80% 6.5 mph SSW10.5 kmh SSW 13.0 mph20.9 kmh 29.80 in1009.1 mb 0.00 in0.0 mm 0.00 in0.0 mm 0.21 in5.3 mm
11:49 PM 51.8°F11.0°C 45.5°F7.5°C 79% 5.6 mph SW9.0 kmh SW 8.7 mph14.0 kmh 29.80 in1009.1 mb 0.00 in0.0 mm 0.00 in0.0 mm 0.21 in5.3 mm
11:54 PM 52.0°F11.1°C 45.7°F7.6°C 79% 6.9 mph SSW11.1 kmh SSW 12.5 mph20.1 kmh 29.80 in1009.1 mb 0.00 in0.0 mm 0.00 in0.0 mm 0.21 in5.3 mm
11:59 PM 52.2°F11.2°C 45.9°F7.7°C 79% 5.8 mph SW9.3 kmh SW 13.4 mph21.6 kmh 29.81 in1009.5 mb 0.00 in0.0 mm 0.00 in0.0 mm 0.21 in5.3 mm